Time;durP1;ratioP1;P1;durP2;ratioP2;P2;SDS_P1;SDS_P2;PMS_P1;PMS_P2;Temp;Humidity;BMP_temperature;BMP_pressure;BME280_temperature;BME280_humidity;BME280_pressure;Samples;Min_cycle;Max_cycle;Signal;HPM_P1;HPM_P2
2021/09/08 00:01:06;;;;;;;0.10;0.10;;;;;;;;;;4995390;28;20046;-89
2021/09/08 00:03:32;;;;;;;0.10;0.10;;;;;;;;;;4995719;28;20048;-91
2021/09/08 00:05:58;;;;;;;0.10;0.10;;;;;;;;;;5011509;28;20129;-89
2021/09/08 00:08:24;;;;;;;0.10;0.10;;;;;;;;;;4979118;28;20045;-89
2021/09/08 00:10:50;;;;;;;0.10;0.10;;;;;;;;;;4979167;28;20046;-90
2021/09/08 00:13:16;;;;;;;0.10;0.10;;;;;;;;;;4981660;28;20436;-89
2021/09/08 00:15:42;;;;;;;0.10;0.10;;;;;;;;;;5015509;28;20038;-90
2021/09/08 00:18:08;;;;;;;0.10;0.10;;;;;;;;;;4983101;28;20038;-90
2021/09/08 00:20:34;;;;;;;0.10;0.10;;;;;;;;;;4999029;28;20042;-89
2021/09/08 00:23:00;;;;;;;0.10;0.10;;;;;;;;;;4999096;28;20048;-89
2021/09/08 00:25:26;;;;;;;0.10;0.10;;;;;;;;;;4982885;28;20046;-90
2021/09/08 00:27:52;;;;;;;0.10;0.10;;;;;;;;;;4999525;28;20052;-89
2021/09/08 00:30:18;;;;;;;0.10;0.10;;;;;;;;;;4999133;28;20397;-90
2021/09/08 00:32:44;;;;;;;0.10;0.10;;;;;;;;;;4982769;28;20120;-89
2021/09/08 00:35:10;;;;;;;0.10;0.10;;;;;;;;;;4998859;28;20073;-89
2021/09/08 00:37:37;;;;;;;0.10;0.10;;;;;;;;;;4998926;28;20096;-90
2021/09/08 00:40:03;;;;;;;0.10;0.10;;;;;;;;;;4998569;28;20061;-89
2021/09/08 00:42:29;;;;;;;0.10;0.10;;;;;;;;;;4982583;28;20041;-89
2021/09/08 00:44:55;;;;;;;0.10;0.10;;;;;;;;;;4982267;28;20100;-89
2021/09/08 00:47:22;;;;;;;0.10;0.10;;;;;;;;;;4982717;28;20113;-89
2021/09/08 00:49:49;;;;;;;0.10;0.10;;;;;;;;;;4998751;28;20050;-89
2021/09/08 00:52:15;;;;;;;0.10;0.10;;;;;;;;;;4982042;28;20493;-90
2021/09/08 00:54:41;;;;;;;0.20;0.20;;;;;;;;;;4998384;28;20044;-90
2021/09/08 00:57:08;;;;;;;0.10;0.10;;;;;;;;;;4982385;28;20042;-90
2021/09/08 00:59:34;;;;;;;0.10;0.10;;;;;;;;;;4982430;28;20074;-89
2021/09/08 01:02:01;;;;;;;0.10;0.10;;;;;;;;;;4998394;28;20042;-90
2021/09/08 01:04:27;;;;;;;0.17;0.17;;;;;;;;;;4982548;28;20398;-89
2021/09/08 01:06:54;;;;;;;0.10;0.10;;;;;;;;;;4982432;28;20437;-89
2021/09/08 01:09:20;;;;;;;0.10;0.10;;;;;;;;;;4982054;28;20078;-89
2021/09/08 01:11:46;;;;;;;0.10;0.10;;;;;;;;;;4982028;28;20371;-91
2021/09/08 01:14:12;;;;;;;0.10;0.10;;;;;;;;;;4998682;28;20160;-90
2021/09/08 01:16:38;;;;;;;0.10;0.10;;;;;;;;;;4982154;28;20106;-90
2021/09/08 01:19:04;;;;;;;0.10;0.10;;;;;;;;;;4982167;28;20255;-90
2021/09/08 01:21:30;;;;;;;0.10;0.10;;;;;;;;;;5014332;28;20151;-90
2021/09/08 01:23:56;;;;;;;0.10;0.10;;;;;;;;;;4996851;28;20164;-89
2021/09/08 01:26:22;;;;;;;0.32;0.32;;;;;;;;;;4998165;28;20350;-90
2021/09/08 01:28:48;;;;;;;0.10;0.10;;;;;;;;;;4981744;28;20046;-89
2021/09/08 01:31:14;;;;;;;0.10;0.10;;;;;;;;;;4981545;28;20034;-90
2021/09/08 01:33:40;;;;;;;0.10;0.10;;;;;;;;;;5013904;28;20481;-89
2021/09/08 01:36:06;;;;;;;0.20;0.20;;;;;;;;;;5014361;28;20477;-90
2021/09/08 01:38:32;;;;;;;0.10;0.10;;;;;;;;;;5014028;28;20038;-90
2021/09/08 01:40:58;;;;;;;0.10;0.10;;;;;;;;;;4997960;28;20049;-89
2021/09/08 01:43:24;;;;;;;0.10;0.10;;;;;;;;;;4981300;28;20092;-90
2021/09/08 01:45:50;;;;;;;0.10;0.10;;;;;;;;;;4981541;28;20202;-90
2021/09/08 01:48:16;;;;;;;0.10;0.10;;;;;;;;;;4981579;28;20050;-89
2021/09/08 01:50:42;;;;;;;0.10;0.10;;;;;;;;;;4981526;28;20034;-89
2021/09/08 01:53:08;;;;;;;0.10;0.10;;;;;;;;;;5013600;28;20120;-91
2021/09/08 01:55:34;;;;;;;0.10;0.10;;;;;;;;;;4981614;28;20046;-89
2021/09/08 01:58:00;;;;;;;0.10;0.10;;;;;;;;;;4981768;28;20052;-88
2021/09/08 02:00:26;;;;;;;0.30;0.30;;;;;;;;;;4981411;28;20042;-90
2021/09/08 02:02:53;;;;;;;0.10;0.10;;;;;;;;;;4997441;28;20041;-89
2021/09/08 02:05:19;;;;;;;0.15;0.15;;;;;;;;;;4996919;28;20049;-88
2021/09/08 02:07:45;;;;;;;0.10;0.10;;;;;;;;;;4981488;28;20427;-89
2021/09/08 02:10:11;;;;;;;0.10;0.10;;;;;;;;;;4996973;28;20034;-89
2021/09/08 02:12:37;;;;;;;0.10;0.10;;;;;;;;;;5013339;28;20125;-89
2021/09/08 02:15:04;;;;;;;0.10;0.10;;;;;;;;;;4980722;28;20042;-89
2021/09/08 02:17:30;;;;;;;0.10;0.10;;;;;;;;;;4981440;28;20029;-89
2021/09/08 02:19:56;;;;;;;0.45;0.45;;;;;;;;;;4996862;28;20444;-89
2021/09/08 02:22:22;;;;;;;0.20;0.20;;;;;;;;;;5012922;28;20070;-89
2021/09/08 02:24:48;;;;;;;0.10;0.10;;;;;;;;;;5012890;28;20121;-89
2021/09/08 02:27:14;;;;;;;0.20;0.20;;;;;;;;;;4980911;28;20450;-91
2021/09/08 02:29:39;;;;;;;0.10;0.10;;;;;;;;;;4980752;28;20046;-89
2021/09/08 02:32:06;;;;;;;0.10;0.10;;;;;;;;;;4996840;28;20033;-89
2021/09/08 02:34:32;;;;;;;0.10;0.10;;;;;;;;;;4996877;28;20042;-89
2021/09/08 02:36:58;;;;;;;0.10;0.10;;;;;;;;;;4996233;28;20069;-90
2021/09/08 02:39:24;;;;;;;0.10;0.10;;;;;;;;;;5013074;28;20127;-90
2021/09/08 02:41:50;;;;;;;0.10;0.10;;;;;;;;;;4980223;28;20061;-89
2021/09/08 02:44:16;;;;;;;0.10;0.10;;;;;;;;;;5012583;28;20053;-89
2021/09/08 02:46:41;;;;;;;0.10;0.10;;;;;;;;;;4980611;28;20060;-89
2021/09/08 02:49:09;;;;;;;0.20;0.20;;;;;;;;;;5012428;28;20038;-88
2021/09/08 02:51:35;;;;;;;0.10;0.10;;;;;;;;;;4996208;28;20053;-88
2021/09/08 02:54:01;;;;;;;0.40;0.40;;;;;;;;;;5012633;28;20511;-88
2021/09/08 02:56:27;;;;;;;0.10;0.10;;;;;;;;;;4996201;28;20065;-90
2021/09/08 02:58:53;;;;;;;0.10;0.10;;;;;;;;;;4996273;28;20462;-89
2021/09/08 03:01:19;;;;;;;0.10;0.10;;;;;;;;;;4980235;28;20042;-90
2021/09/08 03:03:45;;;;;;;0.10;0.10;;;;;;;;;;4996418;28;20095;-90
2021/09/08 03:06:11;;;;;;;0.10;0.10;;;;;;;;;;4980394;28;20038;-89
2021/09/08 03:08:37;;;;;;;0.10;0.10;;;;;;;;;;5012398;28;20041;-89
2021/09/08 03:11:03;;;;;;;0.63;0.10;;;;;;;;;;4996029;28;20052;-89
2021/09/08 03:13:29;;;;;;;0.20;0.20;;;;;;;;;;4979972;28;20046;-90
2021/09/08 03:15:55;;;;;;;0.10;0.10;;;;;;;;;;4995946;28;20181;-90
2021/09/08 03:18:21;;;;;;;0.10;0.10;;;;;;;;;;4979855;28;20495;-91
2021/09/08 03:20:47;;;;;;;0.10;0.10;;;;;;;;;;4979743;28;20129;-90
2021/09/08 03:23:13;;;;;;;0.10;0.10;;;;;;;;;;4980830;28;20067;-90
2021/09/08 03:25:39;;;;;;;0.20;0.20;;;;;;;;;;4980750;28;20255;-90
2021/09/08 03:28:06;;;;;;;0.10;0.10;;;;;;;;;;4980426;28;20041;-90
2021/09/08 03:30:32;;;;;;;0.10;0.10;;;;;;;;;;4980037;28;20053;-90
2021/09/08 03:32:58;;;;;;;0.20;0.20;;;;;;;;;;4979296;28;20129;-90
2021/09/08 03:35:25;;;;;;;0.20;0.20;;;;;;;;;;5011621;28;20642;-91
2021/09/08 03:37:51;;;;;;;0.10;0.10;;;;;;;;;;4995854;28;20101;-90
2021/09/08 03:40:17;;;;;;;0.50;0.50;;;;;;;;;;4995894;28;20037;-90
2021/09/08 03:42:43;;;;;;;0.10;0.10;;;;;;;;;;4979450;28;20099;-90
2021/09/08 03:45:09;;;;;;;0.10;0.10;;;;;;;;;;4979194;28;20422;-90
2021/09/08 03:47:35;;;;;;;0.10;0.10;;;;;;;;;;4978508;28;20192;-90
2021/09/08 03:50:01;;;;;;;0.10;0.10;;;;;;;;;;4995454;28;20092;-90
2021/09/08 03:52:27;;;;;;;0.10;0.10;;;;;;;;;;4995482;28;20513;-89
2021/09/08 03:54:53;;;;;;;0.10;0.10;;;;;;;;;;4979650;28;20030;-90
2021/09/08 03:57:19;;;;;;;0.30;0.20;;;;;;;;;;4995534;28;20501;-90
2021/09/08 03:59:46;;;;;;;0.10;0.10;;;;;;;;;;4979269;28;20041;-90
2021/09/08 04:02:12;;;;;;;0.10;0.10;;;;;;;;;;4979537;28;20343;-90
2021/09/08 04:04:38;;;;;;;0.20;0.20;;;;;;;;;;4995232;28;20104;-91
2021/09/08 04:07:04;;;;;;;0.10;0.10;;;;;;;;;;4995521;28;20048;-90
2021/09/08 04:09:31;;;;;;;0.10;0.10;;;;;;;;;;4995232;28;20125;-91
2021/09/08 04:11:57;;;;;;;0.10;0.10;;;;;;;;;;4995407;28;20038;-91
2021/09/08 04:14:23;;;;;;;0.10;0.10;;;;;;;;;;4979069;28;20117;-89
2021/09/08 04:16:49;;;;;;;0.10;0.10;;;;;;;;;;5011743;28;20140;-89
2021/09/08 04:19:15;;;;;;;0.10;0.10;;;;;;;;;;5011364;28;20037;-90
2021/09/08 04:21:41;;;;;;;0.10;0.10;;;;;;;;;;4979172;28;20042;-90
2021/09/08 04:24:07;;;;;;;0.10;0.10;;;;;;;;;;4979432;28;20048;-90
2021/09/08 04:26:33;;;;;;;0.20;0.20;;;;;;;;;;4978854;28;20125;-89
2021/09/08 04:28:59;;;;;;;0.10;0.10;;;;;;;;;;5011203;28;20127;-90
2021/09/08 04:31:25;;;;;;;0.10;0.10;;;;;;;;;;4978823;28;20045;-90
2021/09/08 04:33:51;;;;;;;0.10;0.10;;;;;;;;;;4995413;28;20041;-89
2021/09/08 04:36:17;;;;;;;0.10;0.10;;;;;;;;;;5011147;28;20434;-90
2021/09/08 04:38:45;;;;;;;1.00;0.17;;;;;;;;;;4995309;28;20069;-90
2021/09/08 04:41:11;;;;;;;0.10;0.10;;;;;;;;;;4995289;28;20088;-90
2021/09/08 04:43:37;;;;;;;0.13;0.13;;;;;;;;;;4994940;28;20061;-90
2021/09/08 04:46:03;;;;;;;0.32;0.20;;;;;;;;;;4994882;28;20472;-91
2021/09/08 04:48:29;;;;;;;0.20;0.20;;;;;;;;;;5011063;28;20141;-90
2021/09/08 04:50:55;;;;;;;0.10;0.10;;;;;;;;;;5011072;28;20057;-90
2021/09/08 04:53:21;;;;;;;0.10;0.10;;;;;;;;;;4978579;28;20046;-90
2021/09/08 04:55:47;;;;;;;0.20;0.20;;;;;;;;;;4978636;28;20056;-91
2021/09/08 04:58:14;;;;;;;0.10;0.10;;;;;;;;;;4995588;28;20484;-90
2021/09/08 05:00:40;;;;;;;0.20;0.20;;;;;;;;;;5014856;28;20045;-90
2021/09/08 05:03:07;;;;;;;0.10;0.10;;;;;;;;;;4982816;28;20048;-89
2021/09/08 05:05:33;;;;;;;0.10;0.10;;;;;;;;;;4998636;28;20052;-90
2021/09/08 05:07:59;;;;;;;0.10;0.10;;;;;;;;;;5014796;28;20046;-90
2021/09/08 05:10:25;;;;;;;0.10;0.10;;;;;;;;;;4982702;28;20069;-90
2021/09/08 05:12:52;;;;;;;0.10;0.10;;;;;;;;;;4982417;28;20104;-90
2021/09/08 05:15:18;;;;;;;0.10;0.10;;;;;;;;;;4983118;28;20042;-89
2021/09/08 05:17:44;;;;;;;0.10;0.10;;;;;;;;;;5002154;28;20038;-89
2021/09/08 05:20:10;;;;;;;0.10;0.10;;;;;;;;;;4988897;28;20072;-89
2021/09/08 05:22:36;;;;;;;0.10;0.10;;;;;;;;;;4995138;28;20038;-89
2021/09/08 05:25:02;;;;;;;0.10;0.10;;;;;;;;;;5007493;28;20056;-89
2021/09/08 05:27:28;;;;;;;0.10;0.10;;;;;;;;;;4997457;28;20044;-91
2021/09/08 05:29:54;;;;;;;0.10;0.10;;;;;;;;;;4996024;28;20440;-91
2021/09/08 05:32:20;;;;;;;0.10;0.10;;;;;;;;;;5017140;28;20092;-90
2021/09/08 05:34:46;;;;;;;0.10;0.10;;;;;;;;;;4998634;28;20070;-90
2021/09/08 05:37:12;;;;;;;0.10;0.10;;;;;;;;;;5006518;28;20038;-89
2021/09/08 05:39:38;;;;;;;0.10;0.10;;;;;;;;;;5002459;28;20045;-89
2021/09/08 05:42:04;;;;;;;0.10;0.10;;;;;;;;;;5012963;28;20046;-91
2021/09/08 05:44:30;;;;;;;0.17;0.17;;;;;;;;;;5017091;28;20252;-90
2021/09/08 05:46:56;;;;;;;0.10;0.10;;;;;;;;;;5021897;28;20057;-91
2021/09/08 05:49:22;;;;;;;0.10;0.10;;;;;;;;;;4999201;28;20053;-90
2021/09/08 05:51:48;;;;;;;0.10;0.10;;;;;;;;;;5014329;28;20042;-91
2021/09/08 05:54:14;;;;;;;0.35;0.30;;;;;;;;;;4997564;28;20208;-90
2021/09/08 05:56:40;;;;;;;0.10;0.10;;;;;;;;;;5014008;28;20538;-91
2021/09/08 05:59:06;;;;;;;0.10;0.10;;;;;;;;;;4981377;28;20046;-90
2021/09/08 06:01:32;;;;;;;0.20;0.20;;;;;;;;;;4997725;28;20490;-92
2021/09/08 06:03:58;;;;;;;0.10;0.10;;;;;;;;;;4997404;28;20401;-91
2021/09/08 06:06:24;;;;;;;0.13;0.13;;;;;;;;;;4980851;28;20037;-91
2021/09/08 06:08:50;;;;;;;0.20;0.20;;;;;;;;;;5013068;28;20122;-91
2021/09/08 06:11:16;;;;;;;0.10;0.10;;;;;;;;;;4980030;28;20046;-92
2021/09/08 06:13:42;;;;;;;0.22;0.22;;;;;;;;;;5013678;28;20044;-90
2021/09/08 06:16:08;;;;;;;0.10;0.10;;;;;;;;;;4997170;28;20125;-91
2021/09/08 06:18:34;;;;;;;0.17;0.17;;;;;;;;;;4997203;28;20041;-91
2021/09/08 06:21:00;;;;;;;0.20;0.20;;;;;;;;;;4996896;28;20129;-91
2021/09/08 06:23:26;;;;;;;0.10;0.10;;;;;;;;;;4997198;28;20081;-91
2021/09/08 06:25:52;;;;;;;0.10;0.10;;;;;;;;;;5013004;28;20041;-91
2021/09/08 06:28:18;;;;;;;0.15;0.15;;;;;;;;;;5013679;28;20091;-91
2021/09/08 06:30:45;;;;;;;0.30;0.30;;;;;;;;;;4996784;28;20421;-91
2021/09/08 06:33:11;;;;;;;0.10;0.10;;;;;;;;;;4980618;28;20045;-91
2021/09/08 06:35:36;;;;;;;0.10;0.10;;;;;;;;;;5012884;28;20037;-91
2021/09/08 06:38:03;;;;;;;0.55;0.55;;;;;;;;;;4996786;28;20121;-92
2021/09/08 06:40:29;;;;;;;0.15;0.15;;;;;;;;;;4980700;28;20069;-92
2021/09/08 06:42:55;;;;;;;0.20;0.20;;;;;;;;;;4996995;28;20438;-91
2021/09/08 06:45:27;;;;;;;0.10;0.10;;;;;;;;;;4997553;28;20493;-92
2021/09/08 06:47:53;;;;;;;0.20;0.15;;;;;;;;;;4996915;28;20053;-91
2021/09/08 06:50:19;;;;;;;0.10;0.10;;;;;;;;;;4980035;28;20406;-92
2021/09/08 06:52:45;;;;;;;0.20;0.20;;;;;;;;;;5012519;28;20176;-90
2021/09/08 06:55:11;;;;;;;0.20;0.20;;;;;;;;;;4979981;28;20516;-93
2021/09/08 06:57:37;;;;;;;0.45;0.45;;;;;;;;;;4979688;28;20042;-92
2021/09/08 07:00:04;;;;;;;0.25;0.25;;;;;;;;;;4996251;28;20041;-92
2021/09/08 07:02:29;;;;;;;0.10;0.10;;;;;;;;;;4996327;28;20045;-91
2021/09/08 07:04:57;;;;;;;0.10;0.10;;;;;;;;;;4996244;28;20034;-93
2021/09/08 07:07:23;;;;;;;0.10;0.10;;;;;;;;;;4980061;28;20100;-91
2021/09/08 07:09:49;;;;;;;0.10;0.10;;;;;;;;;;4979576;28;20042;-91
2021/09/08 07:12:15;;;;;;;0.17;0.17;;;;;;;;;;4995917;28;20050;-92
2021/09/08 07:14:41;;;;;;;0.20;0.20;;;;;;;;;;5012346;28;20092;-91
2021/09/08 07:17:06;;;;;;;0.10;0.10;;;;;;;;;;5012044;28;20378;-93
2021/09/08 07:19:33;;;;;;;0.10;0.10;;;;;;;;;;5012383;28;20037;-91
2021/09/08 07:21:59;;;;;;;0.65;0.65;;;;;;;;;;5011816;28;20122;-92
2021/09/08 07:24:25;;;;;;;0.10;0.10;;;;;;;;;;4995370;28;20485;-93
2021/09/08 07:26:56;;;;;;;0.20;0.20;;;;;;;;;;4995605;28;20046;-91
2021/09/08 07:29:25;;;;;;;0.20;0.20;;;;;;;;;;4981198;28;20044;-92
2021/09/08 07:31:51;;;;;;;0.38;0.38;;;;;;;;;;4995341;28;20042;-92
2021/09/08 07:34:17;;;;;;;0.20;0.20;;;;;;;;;;4979155;28;20081;-92
2021/09/08 07:36:43;;;;;;;0.10;0.10;;;;;;;;;;4995424;28;20081;-92
2021/09/08 07:39:09;;;;;;;0.20;0.20;;;;;;;;;;4995393;28;20245;-93
2021/09/08 07:41:35;;;;;;;0.20;0.20;;;;;;;;;;4995563;28;20042;-92
2021/09/08 07:44:01;;;;;;;0.10;0.10;;;;;;;;;;4978747;28;20093;-93
2021/09/08 07:46:27;;;;;;;0.13;0.13;;;;;;;;;;5011491;28;20046;-92
2021/09/08 07:48:53;;;;;;;0.20;0.20;;;;;;;;;;4979298;28;20423;-92
2021/09/08 07:51:19;;;;;;;0.20;0.20;;;;;;;;;;4979224;28;20045;-92
2021/09/08 07:53:45;;;;;;;0.15;0.15;;;;;;;;;;4995884;28;20069;-93
2021/09/08 07:56:11;;;;;;;0.10;0.10;;;;;;;;;;4979083;28;20049;-93
2021/09/08 07:58:37;;;;;;;0.20;0.20;;;;;;;;;;5011542;28;20049;-92
2021/09/08 08:01:03;;;;;;;0.20;0.20;;;;;;;;;;4995312;28;20046;-92
2021/09/08 08:03:29;;;;;;;0.50;0.50;;;;;;;;;;4979115;28;20130;-93
2021/09/08 08:05:55;;;;;;;0.20;0.20;;;;;;;;;;4978991;28;20077;-92
2021/09/08 08:08:21;;;;;;;0.30;0.28;;;;;;;;;;5011619;28;20042;-92
2021/09/08 08:10:47;;;;;;;0.38;0.30;;;;;;;;;;4995399;28;20085;-93
2021/09/08 08:13:13;;;;;;;0.30;0.30;;;;;;;;;;4979299;28;20461;-93
2021/09/08 08:15:39;;;;;;;0.20;0.20;;;;;;;;;;5011349;28;20069;-93
2021/09/08 08:18:05;;;;;;;0.20;0.20;;;;;;;;;;4979321;28;20136;-92
2021/09/08 08:20:31;;;;;;;0.20;0.20;;;;;;;;;;4995282;28;20143;-93
2021/09/08 08:22:57;;;;;;;0.57;0.57;;;;;;;;;;4979176;28;20092;-92
2021/09/08 08:25:30;;;;;;;0.30;0.30;;;;;;;;;;4979081;28;20224;-94
2021/09/08 08:27:57;;;;;;;0.20;0.20;;;;;;;;;;4996267;28;20082;-93
2021/09/08 08:30:23;;;;;;;0.20;0.20;;;;;;;;;;5011432;28;20065;-93
2021/09/08 08:32:49;;;;;;;0.50;0.50;;;;;;;;;;4995639;28;20042;-92
2021/09/08 08:35:15;;;;;;;0.20;0.20;;;;;;;;;;4982505;28;20134;-92
2021/09/08 08:37:41;;;;;;;0.25;0.25;;;;;;;;;;4982909;28;20100;-94
2021/09/08 08:40:08;;;;;;;0.40;0.40;;;;;;;;;;4998841;28;20445;-93
2021/09/08 08:42:34;;;;;;;0.40;0.40;;;;;;;;;;4999084;28;20029;-93
2021/09/08 08:45:00;;;;;;;0.50;0.50;;;;;;;;;;4998710;28;20058;-92
2021/09/08 08:47:26;;;;;;;0.20;0.20;;;;;;;;;;4998820;28;20042;-92
2021/09/08 08:49:54;;;;;;;0.30;0.30;;;;;;;;;;5015285;28;20084;-93
2021/09/08 08:52:20;;;;;;;0.20;0.20;;;;;;;;;;4982829;28;20171;-93
2021/09/08 08:54:46;;;;;;;0.20;0.20;;;;;;;;;;4998583;28;20081;-93
2021/09/08 08:57:13;;;;;;;0.30;0.30;;;;;;;;;;5014666;28;20048;-92
2021/09/08 08:59:39;;;;;;;0.57;0.57;;;;;;;;;;4982338;28;20073;-93
2021/09/08 09:02:24;;;;;;;0.20;0.20;;;;;;;;;;4982462;28;20041;-93
2021/09/08 09:04:51;;;;;;;0.30;0.30;;;;;;;;;;5014698;28;20042;-93
2021/09/08 09:07:24;;;;;;;0.20;0.20;;;;;;;;;;5014500;28;20150;-93
2021/09/08 09:09:53;;;;;;;0.10;0.10;;;;;;;;;;4982615;28;20037;-93
2021/09/08 09:12:19;;;;;;;0.20;0.20;;;;;;;;;;4982311;28;20124;-93
2021/09/08 09:14:48;;;;;;;0.20;0.20;;;;;;;;;;4998186;28;20034;-92
2021/09/08 09:17:14;;;;;;;0.30;0.30;;;;;;;;;;5014390;28;20103;-95
2021/09/08 09:19:47;;;;;;;0.20;0.20;;;;;;;;;;4998322;28;20042;-92
2021/09/08 09:22:13;;;;;;;0.20;0.20;;;;;;;;;;4981815;28;20037;-93
2021/09/08 09:24:42;;;;;;;0.30;0.30;;;;;;;;;;4982122;28;20128;-93
2021/09/08 09:27:12;;;;;;;0.20;0.20;;;;;;;;;;4998379;28;20370;-92
2021/09/08 09:29:44;;;;;;;0.20;0.20;;;;;;;;;;4981734;28;20048;-93
2021/09/08 09:32:12;;;;;;;0.20;0.20;;;;;;;;;;4998372;28;20042;-94
2021/09/08 09:34:39;;;;;;;0.20;0.20;;;;;;;;;;4981900;28;20045;-93
2021/09/08 09:37:05;;;;;;;0.20;0.20;;;;;;;;;;4998412;28;20042;-95
2021/09/08 09:39:32;;;;;;;0.20;0.20;;;;;;;;;;4981685;28;20206;-93
2021/09/08 09:42:02;;;;;;;0.20;0.20;;;;;;;;;;4981751;28;20124;-95
2021/09/08 09:44:31;;;;;;;0.20;0.20;;;;;;;;;;5013155;28;20097;-93
2021/09/08 09:46:57;;;;;;;0.30;0.30;;;;;;;;;;4997446;28;20482;-93
2021/09/08 09:49:25;;;;;;;0.20;0.20;;;;;;;;;;5001083;28;20037;-93
2021/09/08 09:51:54;;;;;;;0.20;0.20;;;;;;;;;;4999571;28;20096;-93
2021/09/08 09:54:20;;;;;;;0.30;0.30;;;;;;;;;;4981499;28;20077;-93
2021/09/08 09:56:46;;;;;;;0.20;0.20;;;;;;;;;;4997656;28;20038;-94
2021/09/08 09:59:12;;;;;;;0.30;0.30;;;;;;;;;;5014028;28;20038;-92
2021/09/08 10:01:38;;;;;;;0.20;0.20;;;;;;;;;;4997965;28;20038;-94
2021/09/08 10:04:04;;;;;;;0.52;0.52;;;;;;;;;;4997551;28;20478;-93
2021/09/08 10:06:30;;;;;;;0.20;0.20;;;;;;;;;;4981462;28;20049;-92
2021/09/08 10:08:56;;;;;;;0.20;0.20;;;;;;;;;;4997510;28;20123;-92
2021/09/08 10:11:34;;;;;;;0.47;0.43;;;;;;;;;;4997085;28;20074;-93
2021/09/08 10:14:04;;;;;;;0.20;0.20;;;;;;;;;;4998420;28;20033;-93
2021/09/08 10:16:30;;;;;;;0.20;0.20;;;;;;;;;;4997254;28;20045;-94
2021/09/08 10:18:56;;;;;;;0.35;0.35;;;;;;;;;;4981014;28;20069;-93
2021/09/08 10:21:22;;;;;;;0.20;0.20;;;;;;;;;;4996794;28;20081;-92
2021/09/08 10:23:59;;;;;;;0.30;0.30;;;;;;;;;;4997123;28;20118;-93
2021/09/08 10:26:30;;;;;;;0.55;0.47;;;;;;;;;;4981055;28;20049;-92
2021/09/08 10:29:04;;;;;;;0.40;0.40;;;;;;;;;;5013311;28;20050;-93
2021/09/08 10:31:30;;;;;;;0.30;0.30;;;;;;;;;;4998112;28;20524;-92
2021/09/08 10:33:56;;;;;;;1.52;1.05;;;;;;;;;;4980573;28;20037;-92
2021/09/08 10:36:22;;;;;;;0.30;0.30;;;;;;;;;;4997008;28;20067;-93
2021/09/08 10:39:02;;;;;;;0.20;0.20;;;;;;;;;;4996723;28;20041;-93
2021/09/08 10:41:36;;;;;;;0.20;0.20;;;;;;;;;;5013446;28;20046;-93
2021/09/08 10:44:02;;;;;;;0.30;0.30;;;;;;;;;;4996420;28;20055;-93
2021/09/08 10:46:47;;;;;;;0.30;0.30;;;;;;;;;;4980500;28;20045;-92
2021/09/08 10:49:33;;;;;;;0.30;0.20;;;;;;;;;;5012944;28;20065;-93
2021/09/08 10:51:59;;;;;;;0.20;0.20;;;;;;;;;;5002632;28;20054;-92
2021/09/08 10:54:26;;;;;;;0.40;0.40;;;;;;;;;;5012846;28;20040;-92
2021/09/08 10:56:52;;;;;;;0.13;0.13;;;;;;;;;;5012320;28;20037;-93
2021/09/08 10:59:18;;;;;;;0.20;0.20;;;;;;;;;;5013093;28;20500;-92
2021/09/08 11:01:44;;;;;;;0.20;0.20;;;;;;;;;;5012761;28;20053;-92
2021/09/08 11:04:14;;;;;;;0.20;0.20;;;;;;;;;;4980548;28;20046;-93
2021/09/08 11:06:40;;;;;;;0.30;0.30;;;;;;;;;;4996358;28;20452;-93
2021/09/08 11:09:07;;;;;;;0.20;0.20;;;;;;;;;;4996416;28;20152;-92
2021/09/08 11:11:33;;;;;;;0.20;0.20;;;;;;;;;;4980013;28;20046;-92
2021/09/08 11:13:59;;;;;;;0.32;0.20;;;;;;;;;;4980137;28;20124;-93
2021/09/08 11:16:25;;;;;;;0.20;0.20;;;;;;;;;;5012680;28;20595;-93
2021/09/08 11:18:51;;;;;;;0.30;0.30;;;;;;;;;;5012641;28;20501;-92
2021/09/08 11:21:18;;;;;;;0.20;0.20;;;;;;;;;;4979922;28;20512;-93
2021/09/08 11:23:47;;;;;;;1.20;0.40;;;;;;;;;;4996414;28;20464;-93
2021/09/08 11:26:13;;;;;;;0.38;0.20;;;;;;;;;;4980355;28;20042;-94
2021/09/08 11:28:39;;;;;;;0.20;0.20;;;;;;;;;;4980171;28;20077;-93
2021/09/08 11:31:18;;;;;;;0.20;0.20;;;;;;;;;;4996013;28;20046;-92
2021/09/08 11:33:44;;;;;;;0.20;0.20;;;;;;;;;;5012365;28;20045;-94
2021/09/08 11:36:14;;;;;;;0.55;0.25;;;;;;;;;;4996040;28;20041;-92
2021/09/08 11:38:46;;;;;;;2.58;0.60;;;;;;;;;;4979821;28;20033;-91
2021/09/08 11:41:12;;;;;;;0.47;0.25;;;;;;;;;;4996088;28;20056;-92
2021/09/08 11:43:38;;;;;;;0.20;0.20;;;;;;;;;;4995584;28;20127;-94
2021/09/08 11:46:21;;;;;;;0.28;0.28;;;;;;;;;;5012225;28;20057;-93
2021/09/08 11:48:54;;;;;;;0.10;0.10;;;;;;;;;;4979404;28;20049;-94
2021/09/08 11:51:21;;;;;;;0.15;0.15;;;;;;;;;;4996128;28;20080;-94
2021/09/08 11:53:48;;;;;;;0.20;0.20;;;;;;;;;;4979460;28;20042;-92
2021/09/08 11:56:18;;;;;;;0.43;0.40;;;;;;;;;;4995857;28;20478;-93
2021/09/08 11:58:45;;;;;;;0.25;0.25;;;;;;;;;;5012028;28;20053;-94
2021/09/08 12:01:11;;;;;;;0.20;0.20;;;;;;;;;;4979355;28;20560;-93
2021/09/08 12:03:44;;;;;;;0.13;0.13;;;;;;;;;;4995728;28;20499;-94
2021/09/08 12:06:10;;;;;;;0.20;0.20;;;;;;;;;;4996322;28;20050;-93
2021/09/08 12:08:37;;;;;;;0.20;0.20;;;;;;;;;;5011991;28;20045;-92
2021/09/08 12:11:03;;;;;;;0.40;0.40;;;;;;;;;;4996092;28;20037;-93
2021/09/08 12:13:35;;;;;;;0.65;0.65;;;;;;;;;;4995849;28;20042;-92
2021/09/08 12:16:02;;;;;;;0.15;0.15;;;;;;;;;;4979960;28;20073;-93
2021/09/08 12:18:28;;;;;;;0.15;0.15;;;;;;;;;;4995651;28;20132;-93
2021/09/08 12:20:54;;;;;;;0.20;0.20;;;;;;;;;;4982775;28;20108;-94
2021/09/08 12:23:28;;;;;;;0.20;0.20;;;;;;;;;;4982667;28;20552;-92
2021/09/08 12:26:07;;;;;;;0.10;0.10;;;;;;;;;;4984049;28;20050;-93
2021/09/08 12:28:33;;;;;;;0.10;0.10;;;;;;;;;;5015646;28;20080;-92
2021/09/08 12:31:18;;;;;;;0.30;0.30;;;;;;;;;;5011965;28;20129;-93
2021/09/08 12:34:00;;;;;;;0.20;0.20;;;;;;;;;;5012155;28;20045;-93
2021/09/08 12:36:26;;;;;;;0.10;0.10;;;;;;;;;;4979594;28;20362;-92
2021/09/08 12:38:52;;;;;;;0.17;0.17;;;;;;;;;;4979622;28;20038;-94
2021/09/08 12:41:21;;;;;;;0.25;0.22;;;;;;;;;;4979386;28;20046;-93
2021/09/08 12:43:48;;;;;;;0.20;0.20;;;;;;;;;;5011504;28;20164;-93
2021/09/08 12:46:15;;;;;;;0.20;0.20;;;;;;;;;;4995532;28;20089;-94
2021/09/08 12:48:41;;;;;;;0.20;0.20;;;;;;;;;;4995273;28;20053;-92
2021/09/08 12:51:07;;;;;;;0.10;0.10;;;;;;;;;;4979332;28;20057;-91
2021/09/08 12:53:33;;;;;;;0.43;0.43;;;;;;;;;;4995323;28;20492;-93
2021/09/08 12:55:58;;;;;;;0.20;0.20;;;;;;;;;;5011159;28;20041;-92
2021/09/08 12:58:24;;;;;;;0.13;0.13;;;;;;;;;;4995543;28;20507;-94
2021/09/08 13:00:51;;;;;;;0.75;0.60;;;;;;;;;;5011868;28;20053;-94
2021/09/08 13:03:18;;;;;;;1.95;0.30;;;;;;;;;;4995521;28;20490;-93
2021/09/08 13:05:44;;;;;;;0.20;0.20;;;;;;;;;;4979070;28;20103;-92
2021/09/08 13:08:11;;;;;;;0.10;0.10;;;;;;;;;;4995239;28;20095;-94
2021/09/08 13:10:37;;;;;;;0.20;0.20;;;;;;;;;;5010885;28;20053;-94
2021/09/08 13:13:03;;;;;;;0.20;0.20;;;;;;;;;;4979280;28;20048;-93
2021/09/08 13:15:29;;;;;;;0.22;0.22;;;;;;;;;;4979010;28;20125;-93
2021/09/08 13:17:55;;;;;;;0.20;0.20;;;;;;;;;;5010824;28;20533;-93
2021/09/08 13:20:21;;;;;;;0.20;0.20;;;;;;;;;;4980809;28;20133;-94
2021/09/08 13:22:47;;;;;;;0.40;0.40;;;;;;;;;;4998559;28;20441;-92
2021/09/08 13:25:14;;;;;;;0.20;0.20;;;;;;;;;;4998130;28;20045;-93
2021/09/08 13:27:40;;;;;;;0.20;0.20;;;;;;;;;;5015267;28;20038;-92
2021/09/08 13:30:06;;;;;;;0.20;0.20;;;;;;;;;;5014627;28;20048;-95
2021/09/08 13:32:32;;;;;;;0.10;0.10;;;;;;;;;;5014518;28;20046;-94
2021/09/08 13:34:59;;;;;;;0.10;0.10;;;;;;;;;;5014516;28;20098;-92
2021/09/08 13:37:25;;;;;;;0.20;0.20;;;;;;;;;;4981846;28;20053;-92
2021/09/08 13:39:51;;;;;;;0.10;0.10;;;;;;;;;;5014253;28;20042;-92
2021/09/08 13:42:16;;;;;;;0.20;0.20;;;;;;;;;;4998036;28;20131;-92
2021/09/08 13:44:42;;;;;;;0.30;0.30;;;;;;;;;;4997693;28;20054;-93
2021/09/08 13:47:09;;;;;;;0.20;0.20;;;;;;;;;;4982146;28;20481;-93
2021/09/08 13:49:35;;;;;;;0.40;0.40;;;;;;;;;;4997980;28;20049;-93
2021/09/08 13:52:02;;;;;;;0.20;0.20;;;;;;;;;;4997863;28;20045;-93
2021/09/08 13:54:28;;;;;;;0.20;0.20;;;;;;;;;;4997670;28;20346;-92
2021/09/08 13:56:54;;;;;;;0.30;0.30;;;;;;;;;;4981592;28;20042;-94
2021/09/08 13:59:20;;;;;;;0.52;0.52;;;;;;;;;;4981359;28;20381;-92
2021/09/08 14:01:46;;;;;;;0.20;0.20;;;;;;;;;;4997803;28;20400;-92
2021/09/08 14:04:12;;;;;;;0.30;0.30;;;;;;;;;;5013555;28;20111;-92
2021/09/08 14:06:38;;;;;;;0.22;0.22;;;;;;;;;;4981723;28;20053;-92
2021/09/08 14:09:04;;;;;;;0.20;0.20;;;;;;;;;;4981439;28;20067;-92
2021/09/08 14:11:30;;;;;;;0.20;0.20;;;;;;;;;;5013797;28;20516;-93
2021/09/08 14:13:56;;;;;;;0.10;0.10;;;;;;;;;;4981549;28;20034;-92
2021/09/08 14:16:22;;;;;;;0.10;0.10;;;;;;;;;;4981386;28;20485;-92
2021/09/08 14:18:48;;;;;;;0.10;0.10;;;;;;;;;;5013580;28;20034;-91
2021/09/08 14:21:16;;;;;;;0.25;0.25;;;;;;;;;;5013840;28;20252;-94
2021/09/08 14:23:42;;;;;;;0.60;0.30;;;;;;;;;;4997533;28;20042;-92
2021/09/08 14:26:08;;;;;;;0.10;0.10;;;;;;;;;;4981374;28;20045;-94
2021/09/08 14:28:34;;;;;;;0.10;0.10;;;;;;;;;;5012860;28;20141;-93
2021/09/08 14:31:07;;;;;;;0.10;0.10;;;;;;;;;;4996593;28;20120;-92
2021/09/08 14:33:33;;;;;;;0.10;0.10;;;;;;;;;;5013404;28;20120;-93
2021/09/08 14:36:04;;;;;;;0.17;0.17;;;;;;;;;;4997756;28;20084;-93
2021/09/08 14:38:30;;;;;;;0.10;0.10;;;;;;;;;;4981884;28;20045;-92
2021/09/08 14:40:56;;;;;;;0.10;0.10;;;;;;;;;;4997522;28;20041;-92